sensor_id;sensor_type;location;lat;lon;timestamp;P1;durP1;ratioP1;P2;durP2;ratioP2
24729;SDS011;12832;52.392;13.066;2023-02-25T00:00:26;0.60;;;0.50;;
24729;SDS011;12832;52.392;13.066;2023-02-25T00:02:55;0.65;;;0.55;;
24729;SDS011;12832;52.392;13.066;2023-02-25T00:05:23;0.50;;;0.50;;
24729;SDS011;12832;52.392;13.066;2023-02-25T00:07:57;0.45;;;0.45;;
24729;SDS011;12832;52.392;13.066;2023-02-25T00:10:23;0.30;;;0.30;;
24729;SDS011;12832;52.392;13.066;2023-02-25T00:12:49;0.40;;;0.30;;
24729;SDS011;12832;52.392;13.066;2023-02-25T00:15:15;0.52;;;0.40;;
24729;SDS011;12832;52.392;13.066;2023-02-25T00:17:41;0.43;;;0.43;;
24729;SDS011;12832;52.392;13.066;2023-02-25T00:20:08;0.40;;;0.40;;
24729;SDS011;12832;52.392;13.066;2023-02-25T00:22:37;0.80;;;0.52;;
24729;SDS011;12832;52.392;13.066;2023-02-25T00:25:04;0.52;;;0.50;;
24729;SDS011;12832;52.392;13.066;2023-02-25T00:27:30;0.35;;;0.30;;
24729;SDS011;12832;52.392;13.066;2023-02-25T00:29:56;0.50;;;0.43;;
24729;SDS011;12832;52.392;13.066;2023-02-25T00:32:23;0.47;;;0.47;;
24729;SDS011;12832;52.392;13.066;2023-02-25T00:34:50;0.90;;;0.35;;
24729;SDS011;12832;52.392;13.066;2023-02-25T00:37:16;0.43;;;0.35;;
24729;SDS011;12832;52.392;13.066;2023-02-25T00:39:42;0.30;;;0.30;;
24729;SDS011;12832;52.392;13.066;2023-02-25T00:42:13;0.40;;;0.35;;
24729;SDS011;12832;52.392;13.066;2023-02-25T00:44:47;0.50;;;0.50;;
24729;SDS011;12832;52.392;13.066;2023-02-25T00:47:15;0.40;;;0.40;;
24729;SDS011;12832;52.392;13.066;2023-02-25T00:49:46;0.77;;;0.47;;
24729;SDS011;12832;52.392;13.066;2023-02-25T00:52:12;0.40;;;0.40;;
24729;SDS011;12832;52.392;13.066;2023-02-25T00:54:39;0.63;;;0.50;;
24729;SDS011;12832;52.392;13.066;2023-02-25T00:57:05;0.43;;;0.43;;
24729;SDS011;12832;52.392;13.066;2023-02-25T00:59:31;0.50;;;0.50;;
24729;SDS011;12832;52.392;13.066;2023-02-25T01:01:57;0.50;;;0.45;;
24729;SDS011;12832;52.392;13.066;2023-02-25T01:04:24;0.40;;;0.40;;
24729;SDS011;12832;52.392;13.066;2023-02-25T01:06:50;0.63;;;0.40;;
24729;SDS011;12832;52.392;13.066;2023-02-25T01:09:18;0.50;;;0.50;;
24729;SDS011;12832;52.392;13.066;2023-02-25T01:11:45;0.40;;;0.32;;
24729;SDS011;12832;52.392;13.066;2023-02-25T01:14:19;0.43;;;0.40;;
24729;SDS011;12832;52.392;13.066;2023-02-25T01:16:46;0.70;;;0.60;;
24729;SDS011;12832;52.392;13.066;2023-02-25T01:19:17;0.82;;;0.50;;
24729;SDS011;12832;52.392;13.066;2023-02-25T01:21:46;0.55;;;0.50;;
24729;SDS011;12832;52.392;13.066;2023-02-25T01:24:15;0.63;;;0.50;;
24729;SDS011;12832;52.392;13.066;2023-02-25T01:26:45;0.52;;;0.50;;
24729;SDS011;12832;52.392;13.066;2023-02-25T01:29:13;0.60;;;0.60;;
24729;SDS011;12832;52.392;13.066;2023-02-25T01:31:44;0.50;;;0.50;;
24729;SDS011;12832;52.392;13.066;2023-02-25T01:34:15;0.75;;;0.40;;
24729;SDS011;12832;52.392;13.066;2023-02-25T01:36:42;0.50;;;0.50;;
24729;SDS011;12832;52.392;13.066;2023-02-25T01:39:10;0.50;;;0.50;;
24729;SDS011;12832;52.392;13.066;2023-02-25T01:41:37;0.40;;;0.40;;
24729;SDS011;12832;52.392;13.066;2023-02-25T01:46:38;0.75;;;0.40;;
24729;SDS011;12832;52.392;13.066;2023-02-25T01:49:08;0.57;;;0.40;;
24729;SDS011;12832;52.392;13.066;2023-02-25T01:51:40;0.70;;;0.40;;
24729;SDS011;12832;52.392;13.066;2023-02-25T01:54:09;0.40;;;0.40;;
24729;SDS011;12832;52.392;13.066;2023-02-25T01:56:37;0.50;;;0.50;;
24729;SDS011;12832;52.392;13.066;2023-02-25T01:59:07;0.55;;;0.55;;
24729;SDS011;12832;52.392;13.066;2023-02-25T02:01:34;0.75;;;0.45;;
24729;SDS011;12832;52.392;13.066;2023-02-25T02:04:02;0.77;;;0.60;;
24729;SDS011;12832;52.392;13.066;2023-02-25T02:06:41;0.30;;;0.30;;
24729;SDS011;12832;52.392;13.066;2023-02-25T02:09:13;0.43;;;0.40;;
24729;SDS011;12832;52.392;13.066;2023-02-25T02:11:42;0.70;;;0.50;;
24729;SDS011;12832;52.392;13.066;2023-02-25T02:14:13;0.38;;;0.38;;
24729;SDS011;12832;52.392;13.066;2023-02-25T02:22:17;0.60;;;0.30;;
24729;SDS011;12832;52.392;13.066;2023-02-25T02:27:31;0.60;;;0.50;;
24729;SDS011;12832;52.392;13.066;2023-02-25T02:30:26;0.43;;;0.43;;
24729;SDS011;12832;52.392;13.066;2023-02-25T02:35:59;1.00;;;0.60;;
24729;SDS011;12832;52.392;13.066;2023-02-25T02:38:34;0.75;;;0.50;;
24729;SDS011;12832;52.392;13.066;2023-02-25T02:41:23;0.60;;;0.40;;
24729;SDS011;12832;52.392;13.066;2023-02-25T02:44:02;0.82;;;0.52;;
24729;SDS011;12832;52.392;13.066;2023-02-25T02:46:51;0.57;;;0.45;;
24729;SDS011;12832;52.392;13.066;2023-02-25T02:49:36;0.40;;;0.40;;
24729;SDS011;12832;52.392;13.066;2023-02-25T02:52:09;0.50;;;0.50;;
24729;SDS011;12832;52.392;13.066;2023-02-25T02:54:41;0.40;;;0.40;;
24729;SDS011;12832;52.392;13.066;2023-02-25T02:57:12;0.60;;;0.60;;
24729;SDS011;12832;52.392;13.066;2023-02-25T02:59:44;0.47;;;0.47;;
24729;SDS011;12832;52.392;13.066;2023-02-25T03:02:17;0.63;;;0.57;;
24729;SDS011;12832;52.392;13.066;2023-02-25T03:04:52;0.75;;;0.60;;
24729;SDS011;12832;52.392;13.066;2023-02-25T03:07:22;0.30;;;0.30;;
24729;SDS011;12832;52.392;13.066;2023-02-25T03:09:49;0.52;;;0.50;;
24729;SDS011;12832;52.392;13.066;2023-02-25T03:12:18;0.55;;;0.50;;
24729;SDS011;12832;52.392;13.066;2023-02-25T03:14:44;0.60;;;0.50;;
24729;SDS011;12832;52.392;13.066;2023-02-25T03:17:13;0.60;;;0.60;;
24729;SDS011;12832;52.392;13.066;2023-02-25T03:19:58;0.70;;;0.45;;
24729;SDS011;12832;52.392;13.066;2023-02-25T03:22:39;0.50;;;0.45;;
24729;SDS011;12832;52.392;13.066;2023-02-25T03:27:44;0.70;;;0.50;;
24729;SDS011;12832;52.392;13.066;2023-02-25T03:30:16;0.63;;;0.40;;
24729;SDS011;12832;52.392;13.066;2023-02-25T03:32:46;0.43;;;0.32;;
24729;SDS011;12832;52.392;13.066;2023-02-25T03:35:18;0.60;;;0.50;;
24729;SDS011;12832;52.392;13.066;2023-02-25T03:37:46;0.70;;;0.60;;
24729;SDS011;12832;52.392;13.066;2023-02-25T03:40:18;0.60;;;0.40;;
24729;SDS011;12832;52.392;13.066;2023-02-25T03:42:53;0.60;;;0.52;;
24729;SDS011;12832;52.392;13.066;2023-02-25T03:45:42;0.60;;;0.60;;
24729;SDS011;12832;52.392;13.066;2023-02-25T03:48:09;0.75;;;0.60;;
24729;SDS011;12832;52.392;13.066;2023-02-25T03:50:42;0.68;;;0.50;;
24729;SDS011;12832;52.392;13.066;2023-02-25T03:53:15;0.50;;;0.30;;
24729;SDS011;12832;52.392;13.066;2023-02-25T03:55:41;0.50;;;0.50;;
24729;SDS011;12832;52.392;13.066;2023-02-25T03:58:08;0.63;;;0.52;;
24729;SDS011;12832;52.392;13.066;2023-02-25T04:00:34;0.70;;;0.50;;
24729;SDS011;12832;52.392;13.066;2023-02-25T04:03:03;0.47;;;0.47;;
24729;SDS011;12832;52.392;13.066;2023-02-25T04:05:30;0.50;;;0.50;;
24729;SDS011;12832;52.392;13.066;2023-02-25T04:07:56;0.40;;;0.38;;
24729;SDS011;12832;52.392;13.066;2023-02-25T04:10:23;0.50;;;0.50;;
24729;SDS011;12832;52.392;13.066;2023-02-25T04:12:50;0.50;;;0.40;;
24729;SDS011;12832;52.392;13.066;2023-02-25T04:15:17;0.60;;;0.50;;
24729;SDS011;12832;52.392;13.066;2023-02-25T04:17:43;0.70;;;0.70;;
24729;SDS011;12832;52.392;13.066;2023-02-25T04:20:10;0.50;;;0.50;;
24729;SDS011;12832;52.392;13.066;2023-02-25T04:22:38;1.20;;;0.63;;
24729;SDS011;12832;52.392;13.066;2023-02-25T04:25:04;0.40;;;0.40;;
24729;SDS011;12832;52.392;13.066;2023-02-25T04:27:31;0.60;;;0.60;;
24729;SDS011;12832;52.392;13.066;2023-02-25T04:29:57;0.65;;;0.50;;
24729;SDS011;12832;52.392;13.066;2023-02-25T04:32:24;0.80;;;0.50;;
24729;SDS011;12832;52.392;13.066;2023-02-25T04:34:50;0.50;;;0.50;;
24729;SDS011;12832;52.392;13.066;2023-02-25T04:37:16;0.43;;;0.43;;
24729;SDS011;12832;52.392;13.066;2023-02-25T04:39:43;0.80;;;0.70;;
24729;SDS011;12832;52.392;13.066;2023-02-25T04:42:09;0.90;;;0.50;;
24729;SDS011;12832;52.392;13.066;2023-02-25T04:44:35;0.40;;;0.40;;
24729;SDS011;12832;52.392;13.066;2023-02-25T04:47:01;0.70;;;0.60;;
24729;SDS011;12832;52.392;13.066;2023-02-25T04:49:27;0.77;;;0.60;;
24729;SDS011;12832;52.392;13.066;2023-02-25T04:51:53;0.77;;;0.60;;
24729;SDS011;12832;52.392;13.066;2023-02-25T04:54:20;1.05;;;0.60;;
24729;SDS011;12832;52.392;13.066;2023-02-25T04:56:46;0.88;;;0.60;;
24729;SDS011;12832;52.392;13.066;2023-02-25T04:59:13;0.40;;;0.40;;
24729;SDS011;12832;52.392;13.066;2023-02-25T05:01:39;0.40;;;0.40;;
24729;SDS011;12832;52.392;13.066;2023-02-25T05:04:06;0.50;;;0.50;;
24729;SDS011;12832;52.392;13.066;2023-02-25T05:06:32;0.73;;;0.60;;
24729;SDS011;12832;52.392;13.066;2023-02-25T05:08:59;0.50;;;0.50;;
24729;SDS011;12832;52.392;13.066;2023-02-25T05:11:26;0.60;;;0.55;;
24729;SDS011;12832;52.392;13.066;2023-02-25T05:13:52;0.63;;;0.45;;
24729;SDS011;12832;52.392;13.066;2023-02-25T05:16:23;0.50;;;0.50;;
24729;SDS011;12832;52.392;13.066;2023-02-25T05:18:50;0.85;;;0.60;;
24729;SDS011;12832;52.392;13.066;2023-02-25T05:21:18;0.60;;;0.50;;
24729;SDS011;12832;52.392;13.066;2023-02-25T05:23:47;0.50;;;0.50;;
24729;SDS011;12832;52.392;13.066;2023-02-25T05:26:15;1.55;;;0.65;;
24729;SDS011;12832;52.392;13.066;2023-02-25T05:28:42;0.45;;;0.40;;
24729;SDS011;12832;52.392;13.066;2023-02-25T05:31:09;0.40;;;0.30;;
24729;SDS011;12832;52.392;13.066;2023-02-25T05:33:37;1.25;;;0.73;;
24729;SDS011;12832;52.392;13.066;2023-02-25T05:36:04;0.52;;;0.50;;
24729;SDS011;12832;52.392;13.066;2023-02-25T05:38:32;1.00;;;0.60;;
24729;SDS011;12832;52.392;13.066;2023-02-25T05:40:59;0.60;;;0.50;;
24729;SDS011;12832;52.392;13.066;2023-02-25T05:43:26;0.50;;;0.50;;
24729;SDS011;12832;52.392;13.066;2023-02-25T05:45:54;0.50;;;0.40;;
24729;SDS011;12832;52.392;13.066;2023-02-25T05:48:21;0.40;;;0.30;;
24729;SDS011;12832;52.392;13.066;2023-02-25T05:50:48;0.40;;;0.40;;
24729;SDS011;12832;52.392;13.066;2023-02-25T05:53:16;0.50;;;0.50;;
24729;SDS011;12832;52.392;13.066;2023-02-25T05:55:43;0.60;;;0.40;;
24729;SDS011;12832;52.392;13.066;2023-02-25T05:58:10;0.40;;;0.40;;
24729;SDS011;12832;52.392;13.066;2023-02-25T06:00:37;0.50;;;0.50;;
24729;SDS011;12832;52.392;13.066;2023-02-25T06:03:04;0.30;;;0.30;;
24729;SDS011;12832;52.392;13.066;2023-02-25T06:05:31;0.50;;;0.50;;
24729;SDS011;12832;52.392;13.066;2023-02-25T06:07:57;0.30;;;0.30;;
24729;SDS011;12832;52.392;13.066;2023-02-25T06:10:24;0.57;;;0.55;;
24729;SDS011;12832;52.392;13.066;2023-02-25T06:12:51;0.40;;;0.40;;
24729;SDS011;12832;52.392;13.066;2023-02-25T06:15:17;0.30;;;0.30;;
24729;SDS011;12832;52.392;13.066;2023-02-25T06:17:44;0.40;;;0.38;;
24729;SDS011;12832;52.392;13.066;2023-02-25T06:20:10;0.30;;;0.30;;
24729;SDS011;12832;52.392;13.066;2023-02-25T06:22:36;0.50;;;0.40;;
24729;SDS011;12832;52.392;13.066;2023-02-25T06:25:02;0.22;;;0.20;;
24729;SDS011;12832;52.392;13.066;2023-02-25T06:27:29;0.25;;;0.25;;
24729;SDS011;12832;52.392;13.066;2023-02-25T06:29:55;0.50;;;0.40;;
24729;SDS011;12832;52.392;13.066;2023-02-25T06:32:25;0.32;;;0.30;;
24729;SDS011;12832;52.392;13.066;2023-02-25T06:34:51;0.38;;;0.20;;
24729;SDS011;12832;52.392;13.066;2023-02-25T06:37:17;0.20;;;0.20;;
24729;SDS011;12832;52.392;13.066;2023-02-25T06:39:43;0.30;;;0.30;;
24729;SDS011;12832;52.392;13.066;2023-02-25T06:42:09;0.50;;;0.40;;
24729;SDS011;12832;52.392;13.066;2023-02-25T06:44:35;0.30;;;0.30;;
24729;SDS011;12832;52.392;13.066;2023-02-25T06:47:02;0.30;;;0.30;;
24729;SDS011;12832;52.392;13.066;2023-02-25T06:49:28;0.20;;;0.20;;
24729;SDS011;12832;52.392;13.066;2023-02-25T06:51:54;0.10;;;0.10;;
24729;SDS011;12832;52.392;13.066;2023-02-25T06:54:20;0.35;;;0.35;;
24729;SDS011;12832;52.392;13.066;2023-02-25T06:56:47;0.50;;;0.40;;
24729;SDS011;12832;52.392;13.066;2023-02-25T06:59:13;0.45;;;0.40;;
24729;SDS011;12832;52.392;13.066;2023-02-25T07:01:39;0.20;;;0.20;;
24729;SDS011;12832;52.392;13.066;2023-02-25T07:04:06;0.40;;;0.40;;
24729;SDS011;12832;52.392;13.066;2023-02-25T07:06:32;0.17;;;0.17;;
24729;SDS011;12832;52.392;13.066;2023-02-25T07:08:58;0.30;;;0.30;;
24729;SDS011;12832;52.392;13.066;2023-02-25T07:11:26;0.20;;;0.20;;
24729;SDS011;12832;52.392;13.066;2023-02-25T07:13:54;0.20;;;0.20;;
24729;SDS011;12832;52.392;13.066;2023-02-25T07:16:21;0.30;;;0.20;;
24729;SDS011;12832;52.392;13.066;2023-02-25T07:18:48;0.30;;;0.30;;
24729;SDS011;12832;52.392;13.066;2023-02-25T07:21:15;0.22;;;0.22;;
24729;SDS011;12832;52.392;13.066;2023-02-25T07:23:42;0.20;;;0.20;;
24729;SDS011;12832;52.392;13.066;2023-02-25T07:26:10;0.20;;;0.20;;
24729;SDS011;12832;52.392;13.066;2023-02-25T07:28:37;0.30;;;0.20;;
24729;SDS011;12832;52.392;13.066;2023-02-25T07:31:06;0.20;;;0.20;;
24729;SDS011;12832;52.392;13.066;2023-02-25T07:33:35;0.28;;;0.28;;
24729;SDS011;12832;52.392;13.066;2023-02-25T07:36:02;0.20;;;0.20;;
24729;SDS011;12832;52.392;13.066;2023-02-25T07:38:28;0.30;;;0.20;;
24729;SDS011;12832;52.392;13.066;2023-02-25T07:40:54;0.28;;;0.20;;
24729;SDS011;12832;52.392;13.066;2023-02-25T07:43:20;0.10;;;0.10;;
24729;SDS011;12832;52.392;13.066;2023-02-25T07:45:48;0.20;;;0.20;;
24729;SDS011;12832;52.392;13.066;2023-02-25T07:48:14;0.30;;;0.30;;
24729;SDS011;12832;52.392;13.066;2023-02-25T07:50:41;0.10;;;0.10;;
24729;SDS011;12832;52.392;13.066;2023-02-25T07:53:09;0.30;;;0.30;;
24729;SDS011;12832;52.392;13.066;2023-02-25T07:55:35;0.20;;;0.20;;
24729;SDS011;12832;52.392;13.066;2023-02-25T07:58:01;0.10;;;0.10;;
24729;SDS011;12832;52.392;13.066;2023-02-25T08:00:27;0.10;;;0.10;;
24729;SDS011;12832;52.392;13.066;2023-02-25T08:02:53;0.30;;;0.20;;
24729;SDS011;12832;52.392;13.066;2023-02-25T08:05:19;0.20;;;0.20;;
24729;SDS011;12832;52.392;13.066;2023-02-25T08:07:47;0.10;;;0.10;;
24729;SDS011;12832;52.392;13.066;2023-02-25T08:10:13;0.10;;;0.10;;
24729;SDS011;12832;52.392;13.066;2023-02-25T08:12:39;0.20;;;0.20;;
24729;SDS011;12832;52.392;13.066;2023-02-25T08:15:05;0.25;;;0.20;;
24729;SDS011;12832;52.392;13.066;2023-02-25T08:17:34;0.20;;;0.20;;
24729;SDS011;12832;52.392;13.066;2023-02-25T08:20:00;0.30;;;0.20;;
24729;SDS011;12832;52.392;13.066;2023-02-25T08:22:27;0.20;;;0.10;;
24729;SDS011;12832;52.392;13.066;2023-02-25T08:24:53;0.20;;;0.20;;
24729;SDS011;12832;52.392;13.066;2023-02-25T08:27:19;0.30;;;0.17;;
24729;SDS011;12832;52.392;13.066;2023-02-25T08:29:46;0.10;;;0.10;;
24729;SDS011;12832;52.392;13.066;2023-02-25T08:32:12;0.17;;;0.17;;
24729;SDS011;12832;52.392;13.066;2023-02-25T08:34:38;0.17;;;0.10;;
24729;SDS011;12832;52.392;13.066;2023-02-25T08:37:07;0.30;;;0.30;;
24729;SDS011;12832;52.392;13.066;2023-02-25T08:39:36;0.40;;;0.20;;
24729;SDS011;12832;52.392;13.066;2023-02-25T08:42:02;0.28;;;0.28;;
24729;SDS011;12832;52.392;13.066;2023-02-25T08:44:28;0.22;;;0.22;;
24729;SDS011;12832;52.392;13.066;2023-02-25T08:46:54;0.20;;;0.20;;
24729;SDS011;12832;52.392;13.066;2023-02-25T08:49:21;0.20;;;0.20;;
24729;SDS011;12832;52.392;13.066;2023-02-25T08:51:48;0.20;;;0.20;;
24729;SDS011;12832;52.392;13.066;2023-02-25T08:54:15;0.30;;;0.22;;
24729;SDS011;12832;52.392;13.066;2023-02-25T08:56:41;0.20;;;0.20;;
24729;SDS011;12832;52.392;13.066;2023-02-25T08:59:12;0.22;;;0.22;;
24729;SDS011;12832;52.392;13.066;2023-02-25T09:01:40;0.22;;;0.22;;
24729;SDS011;12832;52.392;13.066;2023-02-25T09:04:10;0.13;;;0.10;;
24729;SDS011;12832;52.392;13.066;2023-02-25T09:06:37;0.22;;;0.17;;
24729;SDS011;12832;52.392;13.066;2023-02-25T09:09:03;0.20;;;0.20;;
24729;SDS011;12832;52.392;13.066;2023-02-25T09:11:30;0.20;;;0.20;;
24729;SDS011;12832;52.392;13.066;2023-02-25T09:13:57;0.30;;;0.30;;
24729;SDS011;12832;52.392;13.066;2023-02-25T09:16:23;0.20;;;0.20;;
24729;SDS011;12832;52.392;13.066;2023-02-25T09:18:49;0.30;;;0.20;;
24729;SDS011;12832;52.392;13.066;2023-02-25T09:21:16;0.20;;;0.20;;
24729;SDS011;12832;52.392;13.066;2023-02-25T09:23:43;0.20;;;0.20;;
24729;SDS011;12832;52.392;13.066;2023-02-25T09:26:11;0.30;;;0.20;;
24729;SDS011;12832;52.392;13.066;2023-02-25T09:28:37;0.25;;;0.20;;
24729;SDS011;12832;52.392;13.066;2023-02-25T09:31:04;0.30;;;0.30;;
24729;SDS011;12832;52.392;13.066;2023-02-25T09:33:31;0.13;;;0.13;;
24729;SDS011;12832;52.392;13.066;2023-02-25T09:36:11;0.10;;;0.10;;
24729;SDS011;12832;52.392;13.066;2023-02-25T09:38:40;0.15;;;0.15;;
24729;SDS011;12832;52.392;13.066;2023-02-25T09:41:15;0.30;;;0.20;;
24729;SDS011;12832;52.392;13.066;2023-02-25T09:43:41;0.15;;;0.15;;
24729;SDS011;12832;52.392;13.066;2023-02-25T09:46:09;0.30;;;0.22;;
24729;SDS011;12832;52.392;13.066;2023-02-25T09:48:51;0.30;;;0.30;;
24729;SDS011;12832;52.392;13.066;2023-02-25T09:51:22;0.28;;;0.20;;
24729;SDS011;12832;52.392;13.066;2023-02-25T09:56:34;0.20;;;0.20;;
24729;SDS011;12832;52.392;13.066;2023-02-25T09:59:00;0.20;;;0.20;;
24729;SDS011;12832;52.392;13.066;2023-02-25T10:06:54;0.10;;;0.10;;
24729;SDS011;12832;52.392;13.066;2023-02-25T10:12:23;0.17;;;0.15;;
24729;SDS011;12832;52.392;13.066;2023-02-25T10:15:14;0.20;;;0.20;;
24729;SDS011;12832;52.392;13.066;2023-02-25T10:20:54;0.30;;;0.30;;
24729;SDS011;12832;52.392;13.066;2023-02-25T10:23:31;0.40;;;0.40;;
24729;SDS011;12832;52.392;13.066;2023-02-25T10:26:24;0.20;;;0.20;;
24729;SDS011;12832;52.392;13.066;2023-02-25T10:29:04;0.20;;;0.20;;
24729;SDS011;12832;52.392;13.066;2023-02-25T10:31:32;0.20;;;0.20;;
24729;SDS011;12832;52.392;13.066;2023-02-25T10:34:04;0.22;;;0.22;;
24729;SDS011;12832;52.392;13.066;2023-02-25T10:36:54;0.47;;;0.30;;
24729;SDS011;12832;52.392;13.066;2023-02-25T10:39:22;0.10;;;0.10;;
24729;SDS011;12832;52.392;13.066;2023-02-25T10:41:49;0.20;;;0.17;;
24729;SDS011;12832;52.392;13.066;2023-02-25T10:44:16;0.10;;;0.10;;
24729;SDS011;12832;52.392;13.066;2023-02-25T10:46:57;0.40;;;0.20;;
24729;SDS011;12832;52.392;13.066;2023-02-25T10:49:26;0.75;;;0.22;;
24729;SDS011;12832;52.392;13.066;2023-02-25T10:54:33;0.32;;;0.28;;
24729;SDS011;12832;52.392;13.066;2023-02-25T10:57:12;0.40;;;0.30;;
24729;SDS011;12832;52.392;13.066;2023-02-25T10:59:41;0.15;;;0.15;;
24729;SDS011;12832;52.392;13.066;2023-02-25T11:02:19;0.20;;;0.20;;
24729;SDS011;12832;52.392;13.066;2023-02-25T11:04:49;0.20;;;0.20;;
24729;SDS011;12832;52.392;13.066;2023-02-25T11:07:33;0.20;;;0.13;;
24729;SDS011;12832;52.392;13.066;2023-02-25T11:10:12;0.20;;;0.20;;
24729;SDS011;12832;52.392;13.066;2023-02-25T11:12:41;0.20;;;0.20;;
24729;SDS011;12832;52.392;13.066;2023-02-25T11:18:18;0.10;;;0.10;;
24729;SDS011;12832;52.392;13.066;2023-02-25T11:20:53;0.17;;;0.17;;
24729;SDS011;12832;52.392;13.066;2023-02-25T11:25:59;0.57;;;0.32;;
24729;SDS011;12832;52.392;13.066;2023-02-25T11:28:30;0.20;;;0.20;;
24729;SDS011;12832;52.392;13.066;2023-02-25T11:31:20;0.10;;;0.10;;
24729;SDS011;12832;52.392;13.066;2023-02-25T11:33:56;0.40;;;0.40;;
24729;SDS011;12832;52.392;13.066;2023-02-25T11:36:30;0.13;;;0.13;;
24729;SDS011;12832;52.392;13.066;2023-02-25T11:41:46;0.25;;;0.20;;
24729;SDS011;12832;52.392;13.066;2023-02-25T11:46:54;0.17;;;0.17;;
24729;SDS011;12832;52.392;13.066;2023-02-25T11:49:37;0.17;;;0.17;;
24729;SDS011;12832;52.392;13.066;2023-02-25T12:01:01;0.30;;;0.20;;
24729;SDS011;12832;52.392;13.066;2023-02-25T12:11:48;0.20;;;0.20;;
24729;SDS011;12832;52.392;13.066;2023-02-25T12:22:54;0.22;;;0.20;;
24729;SDS011;12832;52.392;13.066;2023-02-25T12:34:19;0.25;;;0.25;;
24729;SDS011;12832;52.392;13.066;2023-02-25T12:37:08;0.28;;;0.25;;
24729;SDS011;12832;52.392;13.066;2023-02-25T12:39:51;0.35;;;0.30;;
24729;SDS011;12832;52.392;13.066;2023-02-25T12:42:43;0.20;;;0.20;;
24729;SDS011;12832;52.392;13.066;2023-02-25T12:48:32;0.13;;;0.13;;
24729;SDS011;12832;52.392;13.066;2023-02-25T12:54:06;0.20;;;0.20;;
24729;SDS011;12832;52.392;13.066;2023-02-25T13:05:04;0.35;;;0.35;;
24729;SDS011;12832;52.392;13.066;2023-02-25T13:16:30;0.40;;;0.40;;
24729;SDS011;12832;52.392;13.066;2023-02-25T13:19:05;0.30;;;0.30;;
24729;SDS011;12832;52.392;13.066;2023-02-25T13:38:43;0.30;;;0.30;;
24729;SDS011;12832;52.392;13.066;2023-02-25T13:41:40;0.55;;;0.43;;
24729;SDS011;12832;52.392;13.066;2023-02-25T13:44:30;0.40;;;0.40;;
24729;SDS011;12832;52.392;13.066;2023-02-25T13:47:30;0.25;;;0.20;;
24729;SDS011;12832;52.392;13.066;2023-02-25T13:50:13;0.22;;;0.22;;
24729;SDS011;12832;52.392;13.066;2023-02-25T13:53:05;0.40;;;0.40;;
24729;SDS011;12832;52.392;13.066;2023-02-25T14:01:35;0.30;;;0.30;;
24729;SDS011;12832;52.392;13.066;2023-02-25T14:10:13;0.20;;;0.20;;
24729;SDS011;12832;52.392;13.066;2023-02-25T14:12:59;0.38;;;0.35;;
24729;SDS011;12832;52.392;13.066;2023-02-25T14:24:37;0.68;;;0.60;;
24729;SDS011;12832;52.392;13.066;2023-02-25T14:36:01;0.25;;;0.20;;
24729;SDS011;12832;52.392;13.066;2023-02-25T14:44:13;0.38;;;0.30;;
24729;SDS011;12832;52.392;13.066;2023-02-25T14:49:41;0.43;;;0.40;;
24729;SDS011;12832;52.392;13.066;2023-02-25T15:00:57;0.40;;;0.40;;
24729;SDS011;12832;52.392;13.066;2023-02-25T15:06:43;0.80;;;0.40;;
24729;SDS011;12832;52.392;13.066;2023-02-25T15:12:31;0.30;;;0.30;;
24729;SDS011;12832;52.392;13.066;2023-02-25T15:20:50;0.40;;;0.30;;
24729;SDS011;12832;52.392;13.066;2023-02-25T15:23:17;0.40;;;0.40;;
24729;SDS011;12832;52.392;13.066;2023-02-25T15:26:38;0.50;;;0.40;;
24729;SDS011;12832;52.392;13.066;2023-02-25T15:28:47;0.45;;;0.45;;
24729;SDS011;12832;52.392;13.066;2023-02-25T15:33:53;0.63;;;0.40;;
24729;SDS011;12832;52.392;13.066;2023-02-25T15:36:41;0.32;;;0.30;;
24729;SDS011;12832;52.392;13.066;2023-02-25T15:42:06;0.40;;;0.40;;
24729;SDS011;12832;52.392;13.066;2023-02-25T15:44:36;0.45;;;0.43;;
24729;SDS011;12832;52.392;13.066;2023-02-25T15:49:47;0.40;;;0.40;;
24729;SDS011;12832;52.392;13.066;2023-02-25T15:55:29;0.40;;;0.40;;
24729;SDS011;12832;52.392;13.066;2023-02-25T15:57:57;0.88;;;0.50;;
24729;SDS011;12832;52.392;13.066;2023-02-25T16:03:26;0.35;;;0.35;;
24729;SDS011;12832;52.392;13.066;2023-02-25T16:08:45;0.73;;;0.40;;
24729;SDS011;12832;52.392;13.066;2023-02-25T16:11:42;0.60;;;0.40;;
24729;SDS011;12832;52.392;13.066;2023-02-25T16:14:16;0.40;;;0.40;;
24729;SDS011;12832;52.392;13.066;2023-02-25T16:17:14;0.80;;;0.35;;
24729;SDS011;12832;52.392;13.066;2023-02-25T16:19:45;0.30;;;0.30;;
24729;SDS011;12832;52.392;13.066;2023-02-25T16:22:18;0.30;;;0.30;;
24729;SDS011;12832;52.392;13.066;2023-02-25T16:24:50;0.70;;;0.50;;
24729;SDS011;12832;52.392;13.066;2023-02-25T16:27:25;0.40;;;0.40;;
24729;SDS011;12832;52.392;13.066;2023-02-25T16:30:12;0.50;;;0.38;;
24729;SDS011;12832;52.392;13.066;2023-02-25T16:33:04;0.30;;;0.30;;
24729;SDS011;12832;52.392;13.066;2023-02-25T16:38:40;0.30;;;0.30;;
24729;SDS011;12832;52.392;13.066;2023-02-25T16:41:14;0.30;;;0.30;;
24729;SDS011;12832;52.392;13.066;2023-02-25T16:43:41;0.40;;;0.40;;
24729;SDS011;12832;52.392;13.066;2023-02-25T16:46:12;0.40;;;0.40;;
24729;SDS011;12832;52.392;13.066;2023-02-25T16:51:20;0.30;;;0.30;;
24729;SDS011;12832;52.392;13.066;2023-02-25T16:56:39;0.40;;;0.35;;
24729;SDS011;12832;52.392;13.066;2023-02-25T17:01:45;0.28;;;0.20;;
24729;SDS011;12832;52.392;13.066;2023-02-25T17:04:15;0.25;;;0.22;;
24729;SDS011;12832;52.392;13.066;2023-02-25T17:07:04;0.30;;;0.30;;
24729;SDS011;12832;52.392;13.066;2023-02-25T17:12:19;0.40;;;0.30;;
24729;SDS011;12832;52.392;13.066;2023-02-25T17:18:02;0.20;;;0.20;;
24729;SDS011;12832;52.392;13.066;2023-02-25T17:20:41;0.30;;;0.30;;
24729;SDS011;12832;52.392;13.066;2023-02-25T17:23:08;0.52;;;0.20;;
24729;SDS011;12832;52.392;13.066;2023-02-25T17:25:43;0.22;;;0.22;;
24729;SDS011;12832;52.392;13.066;2023-02-25T17:28:19;0.40;;;0.40;;
24729;SDS011;12832;52.392;13.066;2023-02-25T17:30:48;0.22;;;0.22;;
24729;SDS011;12832;52.392;13.066;2023-02-25T17:35:46;0.30;;;0.30;;
24729;SDS011;12832;52.392;13.066;2023-02-25T17:38:16;0.20;;;0.20;;
24729;SDS011;12832;52.392;13.066;2023-02-25T17:40:44;0.20;;;0.20;;
24729;SDS011;12832;52.392;13.066;2023-02-25T17:45:43;0.35;;;0.17;;
24729;SDS011;12832;52.392;13.066;2023-02-25T17:48:31;0.10;;;0.10;;
24729;SDS011;12832;52.392;13.066;2023-02-25T17:51:06;0.38;;;0.38;;
24729;SDS011;12832;52.392;13.066;2023-02-25T17:53:40;0.20;;;0.20;;
24729;SDS011;12832;52.392;13.066;2023-02-25T17:58:51;0.17;;;0.17;;
24729;SDS011;12832;52.392;13.066;2023-02-25T18:04:21;0.20;;;0.20;;
24729;SDS011;12832;52.392;13.066;2023-02-25T18:07:28;1.45;;;0.28;;
24729;SDS011;12832;52.392;13.066;2023-02-25T18:09:55;1.45;;;0.20;;
24729;SDS011;12832;52.392;13.066;2023-02-25T18:12:35;0.30;;;0.30;;
24729;SDS011;12832;52.392;13.066;2023-02-25T18:15:22;0.30;;;0.20;;
24729;SDS011;12832;52.392;13.066;2023-02-25T18:17:56;0.30;;;0.20;;
24729;SDS011;12832;52.392;13.066;2023-02-25T18:20:33;0.20;;;0.20;;
24729;SDS011;12832;52.392;13.066;2023-02-25T18:23:06;0.30;;;0.30;;
24729;SDS011;12832;52.392;13.066;2023-02-25T18:25:43;0.20;;;0.20;;
24729;SDS011;12832;52.392;13.066;2023-02-25T18:28:15;0.30;;;0.30;;
24729;SDS011;12832;52.392;13.066;2023-02-25T18:30:48;0.20;;;0.20;;
24729;SDS011;12832;52.392;13.066;2023-02-25T18:33:17;0.20;;;0.20;;
24729;SDS011;12832;52.392;13.066;2023-02-25T18:35:43;0.38;;;0.38;;
24729;SDS011;12832;52.392;13.066;2023-02-25T18:38:29;0.20;;;0.20;;